Palmarolle, Canada
Current Conditions -  °F | °C
As of 7:00 PM on Sunday 21 Dec 2014 (Local Time) from CYUY Reporting Station
Light Snow Light Snow  
Wind Chill:   Ceiling: 1200
Heat Index: 18°   Visibility: 8mi
Dew Point: 14°   Wind: 7mph
Humidity: 86%   Direction: 250°WSW
Pressure: 30.24"   Gusts: NA
Location:  48.67°N, 79.2°W
Report Text: CYUY 220000Z 25006KT 8SM -SN OVC012 M08/M10 A3024 RMK SC8 SLP273
Loading
Personal Weather Stations






























Interactive Weather Map New forecast layout! Learn more

10-Day Weather Forecast

Advertisements
Track Severe Weather on mobile